createdAt,value
2019-03-19T18:24:15.532Z,56.97
2019-03-19T18:25:50.171Z,56.78
2019-03-19T18:27:25.867Z,57.75
2019-03-19T18:29:00.559Z,57.68
2019-03-19T18:30:35.329Z,57.76
2019-03-19T18:32:09.973Z,57.61
2019-03-19T18:33:44.637Z,58.36
2019-03-19T18:35:19.379Z,58.76
2019-03-19T18:36:53.998Z,58.24
2019-03-19T18:38:28.665Z,58.99
2019-03-19T18:40:03.409Z,59.17
2019-03-19T18:41:38.108Z,59.68
2019-03-19T18:43:12.757Z,59.65
2019-03-19T18:44:47.432Z,59.94
2019-03-19T18:46:22.133Z,60.14
2019-03-19T18:47:56.817Z,60.21
2019-03-19T18:49:31.520Z,60.07
2019-03-19T18:51:06.865Z,60.51
2019-03-19T18:52:41.507Z,60.44
2019-03-19T18:54:16.140Z,60.29
2019-03-19T18:55:50.763Z,60.98
2019-03-19T18:57:25.434Z,60.80
2019-03-19T18:59:00.098Z,61.20
2019-03-19T19:00:34.722Z,61.41
2019-03-19T19:02:09.450Z,61.54
2019-03-19T19:03:44.091Z,61.53
2019-03-19T19:05:18.748Z,61.97
2019-03-19T19:06:53.382Z,62.40
2019-03-19T19:08:28.104Z,62.75
2019-03-19T19:10:02.737Z,62.65
2019-03-19T19:11:37.366Z,62.81
2019-03-19T19:13:12.037Z,63.11
2019-03-19T19:14:46.680Z,63.21
2019-03-19T19:16:22.483Z,63.39
2019-03-19T19:17:57.111Z,63.77
2019-03-19T19:19:31.885Z,63.82
2019-03-19T19:21:06.632Z,63.61
2019-03-19T19:22:41.267Z,63.40
2019-03-19T19:24:15.958Z,64.17
2019-03-19T19:25:50.754Z,64.31
2019-03-19T19:27:26.397Z,64.52
2019-03-19T19:29:01.186Z,64.64
2019-03-19T19:30:35.888Z,64.47
2019-03-19T19:32:11.488Z,64.36
2019-03-19T19:33:46.297Z,64.51
2019-03-19T19:35:21.063Z,64.64
2019-03-19T19:36:55.704Z,64.50
2019-03-19T19:38:30.457Z,64.96
2019-03-19T19:40:05.869Z,65.40
2019-03-19T19:41:40.565Z,65.05
2019-03-19T19:43:15.399Z,65.21
2019-03-19T19:44:50.055Z,65.17
2019-03-19T19:46:24.739Z,65.06
2019-03-19T19:47:59.434Z,65.18
2019-03-19T19:49:34.018Z,65.23
2019-03-19T19:51:09.837Z,65.36
2019-03-19T19:52:44.585Z,65.29
2019-03-19T19:54:19.253Z,65.19
2019-03-19T19:55:53.939Z,65.42
2019-03-19T19:57:28.786Z,65.53
2019-03-19T19:59:03.939Z,65.52
2019-03-19T20:00:38.588Z,65.53
2019-03-19T20:02:13.293Z,65.83
2019-03-19T20:03:48.041Z,65.79
2019-03-19T20:05:22.726Z,66.31
2019-03-19T20:06:57.443Z,66.26
2019-03-19T20:08:32.121Z,66.33
2019-03-19T20:10:11.267Z,66.32
2019-03-19T20:11:45.653Z,66.70
2019-03-19T20:13:20.331Z,66.26
2019-03-19T20:14:55.067Z,66.46
2019-03-19T20:16:29.822Z,66.73
2019-03-19T20:18:04.535Z,66.76
2019-03-19T20:19:39.169Z,66.87
2019-03-19T20:21:14.910Z,66.39
2019-03-19T20:22:50.642Z,66.92
2019-03-19T20:24:25.446Z,66.61
2019-03-19T20:26:00.150Z,66.71
2019-03-19T20:27:34.799Z,66.80
2019-03-19T20:29:09.517Z,66.91
2019-03-19T20:30:44.156Z,67.37
2019-03-19T20:32:19.895Z,66.87
2019-03-19T20:33:54.660Z,67.12
2019-03-19T20:35:29.291Z,67.11
2019-03-19T20:37:04.237Z,67.63
2019-03-19T20:38:38.857Z,67.68
2019-03-19T20:40:13.868Z,68.25
2019-03-19T20:41:48.581Z,68.36
2019-03-19T20:43:24.239Z,68.92
2019-03-19T20:44:58.904Z,69.06
2019-03-19T20:46:33.632Z,68.73
2019-03-19T20:48:08.421Z,68.99
2019-03-19T20:49:47.530Z,68.67
2019-03-19T20:51:19.506Z,68.73
2019-03-19T20:52:54.232Z,68.99
2019-03-19T20:54:28.911Z,69.39
2019-03-19T20:56:03.673Z,69.63
2019-03-19T20:57:39.402Z,69.52
2019-03-19T20:59:15.942Z,70.16
2019-03-19T21:00:50.563Z,69.87
2019-03-19T21:02:25.689Z,69.66
2019-03-19T21:04:00.745Z,69.54
2019-03-19T21:05:36.495Z,69.51
2019-03-19T21:07:11.375Z,69.51
2019-03-19T21:08:46.161Z,69.66
2019-03-19T21:10:20.876Z,69.76
2019-03-19T21:11:55.553Z,69.78
2019-03-19T21:13:30.329Z,70.00
2019-03-19T21:15:05.887Z,69.83
2019-03-19T21:16:40.543Z,69.98
2019-03-19T21:18:15.208Z,70.13
2019-03-19T21:19:49.875Z,70.00
2019-03-19T21:21:24.540Z,69.84
2019-03-19T21:22:59.284Z,70.07
2019-03-19T21:24:33.986Z,71.11
2019-03-19T21:26:08.805Z,70.97
2019-03-19T21:27:43.548Z,71.09
2019-03-19T21:29:18.200Z,71.44
2019-03-19T21:30:52.851Z,71.18
2019-03-19T21:32:27.531Z,71.80
2019-03-19T21:34:02.288Z,71.71
2019-03-19T21:35:36.962Z,71.66
2019-03-19T21:37:11.669Z,71.74
2019-03-19T21:38:46.298Z,71.39
2019-03-19T21:40:21.054Z,71.34
2019-03-19T21:41:55.798Z,71.62
2019-03-19T21:43:30.462Z,71.53
2019-03-19T21:45:06.265Z,71.61
2019-03-19T21:46:40.967Z,71.66
2019-03-19T21:48:15.677Z,72.27
2019-03-19T21:49:50.347Z,72.05
2019-03-19T21:51:25.084Z,71.83
2019-03-19T21:52:59.798Z,72.53
2019-03-19T21:54:34.451Z,72.78
2019-03-19T21:56:09.169Z,72.62
2019-03-19T21:57:44.798Z,72.24
2019-03-19T21:59:19.468Z,72.35
2019-03-19T22:00:54.111Z,71.69
2019-03-19T22:02:28.826Z,71.59
2019-03-19T22:04:03.623Z,71.83
2019-03-19T22:05:38.409Z,72.37
2019-03-19T22:07:13.057Z,72.07
2019-03-19T22:08:47.725Z,72.07
2019-03-19T22:10:22.867Z,72.08
2019-03-19T22:11:57.522Z,71.68
2019-03-19T22:13:32.157Z,71.64
2019-03-19T22:15:12.121Z,71.20
2019-03-19T22:16:47.166Z,71.19
2019-03-19T22:18:21.831Z,71.29
2019-03-19T22:19:57.575Z,70.99
2019-03-19T22:21:32.283Z,71.56
2019-03-19T22:23:07.093Z,71.69
2019-03-19T22:24:41.853Z,71.51
2019-03-19T22:26:16.606Z,72.22
2019-03-19T22:27:51.341Z,71.61
2019-03-19T22:29:26.053Z,71.73
2019-03-19T22:31:00.729Z,72.02
2019-03-19T22:32:35.383Z,72.03
2019-03-19T22:34:14.021Z,72.28
2019-03-19T22:35:46.502Z,72.49
2019-03-19T22:37:21.168Z,72.05
2019-03-19T22:38:55.812Z,71.74
2019-03-19T22:40:30.555Z,71.37
2019-03-19T22:42:05.284Z,71.58
2019-03-19T22:43:39.947Z,72.07
2019-03-19T22:45:14.850Z,71.65
2019-03-19T22:46:49.503Z,71.43
2019-03-19T22:48:24.154Z,71.62
2019-03-19T22:49:58.821Z,71.80
2019-03-19T22:51:33.473Z,71.76
2019-03-19T22:53:08.136Z,72.17
2019-03-19T22:54:42.827Z,72.50
2019-03-19T22:56:17.500Z,72.50
2019-03-19T22:57:52.163Z,72.87
2019-03-19T22:59:26.822Z,73.24
2019-03-19T23:01:01.734Z,73.44
2019-03-19T23:02:38.138Z,73.16
2019-03-19T23:04:12.784Z,73.68
2019-03-19T23:05:47.489Z,73.71
2019-03-19T23:07:22.203Z,73.10
2019-03-19T23:08:56.854Z,72.91
2019-03-19T23:10:31.559Z,73.15
2019-03-19T23:12:07.901Z,72.75
2019-03-19T23:13:42.573Z,72.79
2019-03-19T23:15:17.207Z,72.78
2019-03-19T23:16:51.978Z,73.12
2019-03-19T23:18:26.726Z,73.38
2019-03-19T23:20:01.401Z,73.07
2019-03-19T23:21:36.211Z,73.14
2019-03-19T23:23:10.849Z,73.48
2019-03-19T23:24:45.555Z,73.09
2019-03-19T23:26:20.229Z,73.19
2019-03-19T23:27:55.882Z,73.04
2019-03-19T23:29:30.568Z,73.17
2019-03-19T23:31:05.330Z,73.60
2019-03-19T23:32:39.990Z,73.15
2019-03-19T23:34:14.676Z,73.70
2019-03-19T23:35:49.419Z,73.56
2019-03-19T23:37:24.202Z,73.96
2019-03-19T23:38:58.877Z,73.88
2019-03-19T23:40:34.662Z,73.97
2019-03-19T23:42:09.319Z,73.81
2019-03-19T23:43:43.958Z,74.61
2019-03-19T23:45:20.953Z,74.24
2019-03-19T23:46:57.599Z,73.96
2019-03-19T23:48:32.055Z,74.07
2019-03-19T23:50:08.780Z,74.79
2019-03-19T23:51:43.527Z,74.77
2019-03-19T23:53:18.221Z,74.60
2019-03-19T23:54:52.894Z,74.73
2019-03-19T23:56:27.693Z,74.80
2019-03-19T23:58:02.433Z,75.55
2019-03-19T23:59:37.060Z,75.26
